Time;durP1;ratioP1;P1;durP2;ratioP2;P2;SDS_P1;SDS_P2;PMS_P1;PMS_P2;Temp;Humidity;BMP_temperature;BMP_pressure;BME280_temperature;BME280_humidity;BME280_pressure;Samples;Min_cycle;Max_cycle;Signal;HPM_P1;HPM_P2
2022/06/10 00:00:19;;;;;;;8.43;2.33;;;13.70;99.90;;;;;;5046571;28;20041;-79
2022/06/10 00:02:45;;;;;;;6.72;2.55;;;13.70;99.90;;;;;;5030618;28;20094;-78
2022/06/10 00:05:17;;;;;;;8.90;2.55;;;13.60;99.90;;;;;;5046116;28;20410;-80
2022/06/10 00:07:43;;;;;;;6.30;2.40;;;13.60;99.90;;;;;;5030032;28;20573;-79
2022/06/10 00:10:11;;;;;;;7.82;2.80;;;13.60;99.90;;;;;;5046253;28;20029;-79
2022/06/10 00:12:37;;;;;;;9.13;2.40;;;13.50;99.90;;;;;;5047060;28;20025;-80
2022/06/10 00:15:05;;;;;;;7.55;2.85;;;13.50;99.90;;;;;;5045652;28;20041;-80
2022/06/10 00:17:31;;;;;;;12.82;2.65;;;13.50;99.90;;;;;;5045201;28;20044;-79
2022/06/10 00:19:56;;;;;;;8.30;2.70;;;13.50;99.90;;;;;;5044472;28;20125;-78
2022/06/10 00:22:22;;;;;;;10.65;2.60;;;13.50;99.90;;;;;;5047411;28;20041;-78
2022/06/10 00:24:51;;;;;;;8.57;2.70;;;13.40;99.90;;;;;;5045761;28;20045;-80
2022/06/10 00:27:17;;;;;;;9.43;2.38;;;13.40;99.90;;;;;;5046033;28;20033;-79
2022/06/10 00:29:42;;;;;;;6.05;2.30;;;13.40;99.90;;;;;;5044741;28;20140;-78
2022/06/10 00:32:08;;;;;;;7.80;2.70;;;13.30;99.90;;;;;;5046734;28;20140;-79
2022/06/10 00:34:35;;;;;;;9.30;2.50;;;13.30;99.90;;;;;;5047023;28;20572;-79
2022/06/10 00:37:05;;;;;;;8.30;2.40;;;13.30;99.90;;;;;;5045677;28;20041;-79
2022/06/10 00:39:32;;;;;;;8.07;3.05;;;13.30;99.90;;;;;;5045453;28;20037;-78
2022/06/10 00:41:58;;;;;;;6.93;2.58;;;13.30;99.90;;;;;;5047411;28;20044;-79
2022/06/10 00:44:37;;;;;;;7.28;2.53;;;13.30;99.90;;;;;;5046830;28;20384;-79
2022/06/10 00:47:25;;;;;;;11.75;2.75;;;13.30;99.90;;;;;;5045608;28;20116;-79
2022/06/10 00:49:56;;;;;;;7.97;2.80;;;13.20;99.90;;;;;;5042486;28;20052;-79
2022/06/10 00:52:29;;;;;;;7.72;2.40;;;13.20;99.90;;;;;;5045419;28;20128;-79
2022/06/10 00:54:55;;;;;;;8.05;2.67;;;13.20;99.90;;;;;;5042093;28;20044;-80
2022/06/10 00:57:30;;;;;;;10.15;3.05;;;13.10;99.90;;;;;;5045864;28;20123;-79
2022/06/10 01:00:07;;;;;;;9.48;3.00;;;13.10;99.90;;;;;;5043907;28;20438;-79
2022/06/10 01:02:35;;;;;;;10.07;2.67;;;13.10;99.90;;;;;;5046373;28;20146;-79
2022/06/10 01:05:04;;;;;;;8.07;3.33;;;13.00;99.90;;;;;;5043032;28;20087;-79
2022/06/10 01:07:43;;;;;;;8.82;2.60;;;13.00;99.90;;;;;;5045730;28;20135;-80
2022/06/10 01:10:12;;;;;;;11.38;2.95;;;13.00;99.90;;;;;;5043618;28;20029;-80
2022/06/10 01:12:50;;;;;;;6.07;2.75;;;12.90;99.90;;;;;;5045106;28;20037;-79
2022/06/10 01:15:29;;;;;;;6.50;2.60;;;13.00;99.90;;;;;;5045064;28;20037;-80
2022/06/10 01:18:08;;;;;;;7.03;3.08;;;13.00;99.90;;;;;;5028300;28;20032;-80
2022/06/10 01:20:51;;;;;;;9.27;3.00;;;13.00;99.90;;;;;;5044898;28;20487;-80
2022/06/10 01:23:51;;;;;;;8.38;3.33;;;13.00;99.90;;;;;;5044117;28;20079;-79
2022/06/10 01:29:53;;;;;;;8.68;3.00;;;12.90;99.90;;;;;;5043240;28;20055;-77
2022/06/10 01:32:43;;;;;;;8.13;2.53;;;12.80;99.90;;;;;;5043660;28;20080;-80
2022/06/10 01:35:38;;;;;;;5.78;2.75;;;12.80;99.90;;;;;;5043999;28;20448;-79
2022/06/10 01:38:24;;;;;;;9.05;3.00;;;12.80;99.90;;;;;;5042280;28;20037;-80
2022/06/10 01:41:11;;;;;;;8.02;2.78;;;12.70;99.90;;;;;;5044171;28;20498;-80
2022/06/10 01:44:05;;;;;;;7.50;3.03;;;12.70;99.90;;;;;;5045383;28;20090;-78
2022/06/10 01:46:35;;;;;;;9.82;3.67;;;12.70;99.90;;;;;;5045388;28;20079;-79
2022/06/10 01:49:26;;;;;;;8.88;3.00;;;12.70;99.90;;;;;;5045399;28;20572;-79
2022/06/10 01:52:13;;;;;;;9.25;2.85;;;12.70;99.90;;;;;;5045296;28;20076;-78
2022/06/10 01:54:59;;;;;;;8.02;3.20;;;12.70;99.90;;;;;;5043015;28;20064;-79
2022/06/10 01:57:34;;;;;;;7.30;2.78;;;12.60;99.90;;;;;;5041642;28;20119;-79
2022/06/10 02:00:05;;;;;;;6.97;3.00;;;12.50;99.90;;;;;;5043094;28;20119;-79
2022/06/10 02:02:34;;;;;;;10.30;3.38;;;12.50;99.90;;;;;;5049027;28;20041;-79
2022/06/10 02:05:07;;;;;;;5.78;3.03;;;12.50;99.90;;;;;;5031801;28;20052;-80
2022/06/10 02:07:38;;;;;;;9.40;3.30;;;12.50;99.90;;;;;;5048762;28;20129;-80
2022/06/10 02:10:36;;;;;;;7.25;3.00;;;12.40;99.90;;;;;;5049092;28;20399;-79
2022/06/10 02:13:07;;;;;;;9.63;3.30;;;12.40;99.90;;;;;;5048005;28;20104;-78
2022/06/10 02:15:46;;;;;;;7.22;3.53;;;12.30;99.90;;;;;;5045453;28;20052;-80
2022/06/10 02:18:21;;;;;;;8.50;3.30;;;12.30;99.90;;;;;;5048545;28;20033;-79
2022/06/10 02:20:52;;;;;;;9.70;3.20;;;12.40;99.90;;;;;;5048473;28;20044;-79
2022/06/10 02:23:23;;;;;;;8.07;3.40;;;12.30;99.90;;;;;;5049866;28;20034;-80
2022/06/10 02:25:54;;;;;;;8.65;3.28;;;12.30;99.90;;;;;;5030585;28;20503;-78
2022/06/10 02:28:34;;;;;;;6.38;3.00;;;12.30;99.90;;;;;;5045640;28;20036;-79
2022/06/10 02:31:15;;;;;;;9.32;3.10;;;12.30;99.90;;;;;;5032076;28;20037;-80
2022/06/10 02:33:41;;;;;;;8.10;3.28;;;12.20;99.90;;;;;;5048521;28;20052;-77
2022/06/10 02:36:16;;;;;;;9.60;3.55;;;12.30;99.90;;;;;;5030334;28;20391;-79
2022/06/10 02:38:57;;;;;;;10.30;3.42;;;12.20;99.90;;;;;;5046674;28;20123;-79
2022/06/10 02:41:28;;;;;;;8.07;3.70;;;12.20;99.90;;;;;;5048256;28;20041;-79
2022/06/10 02:44:05;;;;;;;9.32;3.22;;;12.20;99.90;;;;;;5047114;28;20037;-79
2022/06/10 02:46:40;;;;;;;12.75;3.35;;;12.20;99.90;;;;;;5031281;28;20040;-79
2022/06/10 02:49:09;;;;;;;7.28;3.05;;;12.10;99.90;;;;;;5047484;28;20570;-79
2022/06/10 02:51:37;;;;;;;8.52;3.17;;;12.10;99.90;;;;;;5047725;28;20072;-80
2022/06/10 02:54:06;;;;;;;9.38;3.08;;;12.00;99.90;;;;;;5045728;28;20122;-79
2022/06/10 02:56:31;;;;;;;8.48;3.30;;;12.00;99.90;;;;;;5047191;28;20433;-78
2022/06/10 03:02:04;;;;;;;7.65;3.30;;;12.00;99.90;;;;;;5047367;28;20510;-80
2022/06/10 03:05:01;;;;;;;8.07;3.38;;;11.90;99.90;;;;;;5045681;28;20044;-79
2022/06/10 03:08:08;;;;;;;9.05;3.55;;;11.90;99.90;;;;;;5030265;28;20075;-79
2022/06/10 03:10:56;;;;;;;9.48;3.70;;;11.90;99.90;;;;;;5016457;28;20045;-79
2022/06/10 03:13:39;;;;;;;10.10;3.50;;;11.90;99.90;;;;;;5029440;28;20040;-78
2022/06/10 03:16:28;;;;;;;8.27;3.40;;;11.90;99.90;;;;;;5045349;28;20041;-79
2022/06/10 03:19:22;;;;;;;9.30;3.63;;;11.90;99.90;;;;;;5045944;28;20124;-79
2022/06/10 03:22:03;;;;;;;9.20;3.47;;;11.90;99.90;;;;;;5027528;28;20107;-79
2022/06/10 03:24:38;;;;;;;9.75;3.38;;;11.80;99.90;;;;;;5029632;28;20047;-79
2022/06/10 03:27:26;;;;;;;10.57;3.50;;;11.80;99.90;;;;;;5046022;28;20531;-78
2022/06/10 03:30:06;;;;;;;9.18;3.70;;;11.80;99.90;;;;;;5044988;28;20044;-79
2022/06/10 03:32:36;;;;;;;11.45;3.80;;;11.80;99.90;;;;;;5046945;28;20028;-79
2022/06/10 03:35:19;;;;;;;8.68;3.22;;;11.70;99.90;;;;;;5028454;28;20080;-77
2022/06/10 03:37:46;;;;;;;10.25;3.30;;;11.80;99.90;;;;;;5026847;28;20112;-79
2022/06/10 03:40:22;;;;;;;9.32;3.75;;;11.80;99.90;;;;;;5029717;28;20052;-77
2022/06/10 03:42:53;;;;;;;9.13;2.80;;;11.80;99.90;;;;;;5036205;28;20404;-77
2022/06/10 03:45:23;;;;;;;11.20;3.65;;;11.80;99.90;;;;;;5028208;28;20106;-79
2022/06/10 03:47:49;;;;;;;12.00;3.42;;;11.70;99.90;;;;;;5027725;28;20138;-79
2022/06/10 03:50:18;;;;;;;12.38;3.60;;;11.80;99.90;;;;;;5026160;28;20037;-79
2022/06/10 03:52:45;;;;;;;12.94;3.40;;;11.90;99.90;;;;;;4999725;28;1040408;-79
2022/06/10 03:55:16;;;;;;;8.88;3.33;;;11.90;99.90;;;;;;5027068;28;20056;-79
2022/06/10 03:57:42;;;;;;;12.80;3.47;;;11.90;99.90;;;;;;5025796;28;20098;-78
2022/06/10 04:00:13;;;;;;;11.52;3.22;;;12.00;99.90;;;;;;5028997;28;20041;-79
2022/06/10 04:02:39;;;;;;;7.72;2.90;;;12.00;99.90;;;;;;5051734;28;20040;-78
2022/06/10 04:05:05;;;;;;;12.00;3.10;;;12.10;99.90;;;;;;5026501;28;20139;-78
2022/06/10 04:07:30;;;;;;;10.00;3.03;;;12.10;99.90;;;;;;5028882;28;20044;-77
2022/06/10 04:09:56;;;;;;;9.43;3.05;;;12.20;99.90;;;;;;5030283;28;20077;-79
2022/06/10 04:12:22;;;;;;;10.40;3.45;;;12.20;99.90;;;;;;5033071;28;20124;-78
2022/06/10 04:14:47;;;;;;;13.38;2.90;;;12.30;99.90;;;;;;5027238;28;20092;-77
2022/06/10 04:17:13;;;;;;;9.60;3.08;;;12.30;99.90;;;;;;5013329;28;20041;-79
2022/06/10 04:19:39;;;;;;;13.40;3.08;;;12.40;99.90;;;;;;5026491;28;20037;-78
2022/06/10 04:22:04;;;;;;;11.93;3.20;;;12.50;99.90;;;;;;5032626;28;20402;-79
2022/06/10 04:24:30;;;;;;;8.07;3.08;;;12.50;99.90;;;;;;5029053;28;20120;-77
2022/06/10 04:26:56;;;;;;;11.25;3.40;;;12.60;99.90;;;;;;5030796;28;20090;-76
2022/06/10 04:29:21;;;;;;;12.50;3.47;;;12.70;99.90;;;;;;5026844;28;20041;-79
2022/06/10 04:31:47;;;;;;;9.85;3.05;;;12.70;99.90;;;;;;5027683;28;20131;-79
2022/06/10 04:34:13;;;;;;;15.18;3.08;;;12.80;99.90;;;;;;5032067;28;20040;-79
2022/06/10 04:36:39;;;;;;;11.45;2.75;;;12.90;99.90;;;;;;5025520;28;20056;-79
2022/06/10 04:39:05;;;;;;;8.93;2.50;;;12.90;99.90;;;;;;5026583;28;21603;-79
2022/06/10 04:41:31;;;;;;;7.65;3.30;;;13.00;99.90;;;;;;5026967;28;20055;-78
2022/06/10 04:43:57;;;;;;;12.02;2.92;;;13.10;99.90;;;;;;5038843;28;20045;-79
2022/06/10 04:46:30;;;;;;;11.18;3.17;;;13.20;99.90;;;;;;5030481;28;20037;-79
2022/06/10 04:48:56;;;;;;;12.57;3.83;;;13.30;99.90;;;;;;5029490;28;20123;-77
2022/06/10 04:51:22;;;;;;;10.68;2.70;;;13.50;99.90;;;;;;5026641;28;20040;-79
2022/06/10 04:53:47;;;;;;;10.20;2.70;;;13.70;99.90;;;;;;5032176;28;20127;-77
2022/06/10 04:56:13;;;;;;;11.85;2.95;;;13.90;99.90;;;;;;5027137;28;20029;-77
2022/06/10 04:58:39;;;;;;;11.20;3.17;;;14.10;99.90;;;;;;5009679;28;20041;-78
2022/06/10 05:01:05;;;;;;;9.38;2.92;;;14.30;99.90;;;;;;5029113;28;20134;-77
2022/06/10 05:03:32;;;;;;;10.25;2.63;;;14.30;99.90;;;;;;5035190;28;20072;-78
2022/06/10 05:05:57;;;;;;;12.10;2.72;;;14.30;99.90;;;;;;5030471;28;20040;-78
2022/06/10 05:08:23;;;;;;;10.13;2.97;;;14.30;99.90;;;;;;5025940;28;20048;-77
2022/06/10 05:10:49;;;;;;;11.95;3.40;;;14.30;99.90;;;;;;5025952;28;20041;-79
2022/06/10 05:13:16;;;;;;;12.38;3.22;;;14.30;99.90;;;;;;5017365;28;20053;-79
2022/06/10 05:15:43;;;;;;;10.60;2.90;;;14.30;99.90;;;;;;5030478;28;21346;-78
2022/06/10 05:18:10;;;;;;;9.77;2.88;;;14.40;99.90;;;;;;5009828;28;20130;-77
2022/06/10 05:20:40;;;;;;;11.25;2.90;;;14.40;99.90;;;;;;5025882;28;20040;-79
2022/06/10 05:23:07;;;;;;;13.20;2.95;;;14.40;99.90;;;;;;5031110;28;20124;-80
2022/06/10 05:25:33;;;;;;;9.23;2.80;;;14.50;99.90;;;;;;5032037;28;20118;-78
2022/06/10 05:27:59;;;;;;;11.52;2.65;;;14.50;99.90;;;;;;5025550;28;20457;-78
2022/06/10 05:30:28;;;;;;;10.43;3.00;;;14.60;99.90;;;;;;5027032;28;20048;-78
2022/06/10 05:32:54;;;;;;;14.68;3.05;;;14.60;99.90;;;;;;5034528;28;20037;-78
2022/06/10 05:35:20;;;;;;;7.97;2.75;;;14.60;99.90;;;;;;5045270;28;20033;-80
2022/06/10 05:37:49;;;;;;;13.80;3.30;;;14.70;99.90;;;;;;5028574;28;20069;-80
2022/06/10 05:40:15;;;;;;;12.32;3.22;;;14.70;99.90;;;;;;5045295;28;20029;-79
2022/06/10 05:42:41;;;;;;;12.93;3.40;;;14.70;99.90;;;;;;5046004;28;20052;-78
2022/06/10 05:45:08;;;;;;;10.60;3.03;;;14.80;99.90;;;;;;5044067;28;20037;-80
2022/06/10 05:47:35;;;;;;;12.07;2.92;;;14.90;99.90;;;;;;5046223;28;20380;-79
2022/06/10 05:50:05;;;;;;;10.43;3.15;;;14.90;99.90;;;;;;5044696;28;20040;-78
2022/06/10 05:52:31;;;;;;;8.80;3.10;;;14.90;99.90;;;;;;5044806;28;20041;-79
2022/06/10 05:55:00;;;;;;;13.00;3.03;;;15.00;99.90;;;;;;5044126;28;20052;-80
2022/06/10 05:57:27;;;;;;;8.35;3.63;;;15.00;99.90;;;;;;5044061;28;20048;-80
2022/06/10 05:59:54;;;;;;;8.85;2.80;;;15.10;99.90;;;;;;5044012;28;20723;-77
2022/06/10 06:02:21;;;;;;;7.85;2.88;;;15.10;99.90;;;;;;5045594;28;20391;-80
2022/06/10 06:04:47;;;;;;;10.93;3.13;;;15.20;99.90;;;;;;5043609;28;20076;-80
2022/06/10 06:07:22;;;;;;;8.95;3.00;;;15.30;99.90;;;;;;5044547;28;20774;-81
2022/06/10 06:09:48;;;;;;;10.15;3.47;;;15.30;99.90;;;;;;5044047;28;20041;-81
2022/06/10 06:12:14;;;;;;;13.43;3.10;;;15.40;99.90;;;;;;5045279;28;20033;-81
2022/06/10 06:14:40;;;;;;;14.38;3.30;;;15.50;99.90;;;;;;5042874;28;20043;-81
2022/06/10 06:17:06;;;;;;;12.38;3.47;;;15.50;99.90;;;;;;5024188;28;20072;-78
2022/06/10 06:19:34;;;;;;;9.68;3.03;;;15.50;99.90;;;;;;5026348;28;20048;-81
2022/06/10 06:22:00;;;;;;;11.02;3.38;;;15.60;99.90;;;;;;5046720;28;20036;-81
2022/06/10 06:24:26;;;;;;;15.50;3.47;;;15.60;99.90;;;;;;5048572;28;20546;-80
2022/06/10 06:26:52;;;;;;;11.95;3.80;;;15.70;99.90;;;;;;5048787;28;20122;-81
2022/06/10 06:29:19;;;;;;;9.10;3.90;;;15.90;99.90;;;;;;5046316;28;20033;-81
2022/06/10 06:31:45;;;;;;;15.63;4.00;;;15.80;99.90;;;;;;5043772;28;20182;-81
2022/06/10 06:34:11;;;;;;;13.65;4.00;;;15.80;99.90;;;;;;5045057;28;20119;-80
2022/06/10 06:36:45;;;;;;;9.93;3.75;;;15.70;99.90;;;;;;5045322;28;20175;-80
2022/06/10 06:39:11;;;;;;;12.52;3.95;;;15.60;99.90;;;;;;5027449;28;20513;-80
2022/06/10 06:41:37;;;;;;;12.40;4.22;;;15.60;99.90;;;;;;5028455;28;20120;-80
2022/06/10 06:44:05;;;;;;;14.20;4.30;;;15.50;99.90;;;;;;5045530;28;20040;-79
2022/06/10 06:46:33;;;;;;;12.40;4.38;;;15.50;99.90;;;;;;5044515;28;20048;-81
2022/06/10 06:48:59;;;;;;;17.08;4.70;;;15.60;99.90;;;;;;5031048;28;20107;-80
2022/06/10 06:51:25;;;;;;;14.27;4.50;;;15.70;99.90;;;;;;5048430;28;20558;-79
2022/06/10 06:53:50;;;;;;;19.15;4.38;;;15.80;99.90;;;;;;5048099;28;20055;-80
2022/06/10 06:56:16;;;;;;;14.95;3.92;;;15.90;99.90;;;;;;5030147;28;20450;-81
2022/06/10 06:58:43;;;;;;;11.88;3.83;;;16.00;99.90;;;;;;5047935;28;20040;-83
2022/06/10 07:01:08;;;;;;;13.40;4.10;;;16.20;99.90;;;;;;5048584;28;20068;-82
2022/06/10 07:03:34;;;;;;;12.55;3.90;;;16.30;99.90;;;;;;5047938;28;20098;-80
2022/06/10 07:06:00;;;;;;;14.18;4.18;;;16.30;99.90;;;;;;5047177;28;20037;-80
2022/06/10 07:08:31;;;;;;;10.18;3.53;;;16.50;99.90;;;;;;5047876;28;20040;-81
2022/06/10 07:11:01;;;;;;;12.75;4.18;;;16.80;99.90;;;;;;5047447;28;20096;-81
2022/06/10 07:13:28;;;;;;;12.75;4.13;;;16.90;99.90;;;;;;5031152;28;20060;-79
2022/06/10 07:15:55;;;;;;;11.52;3.70;;;16.90;99.90;;;;;;5046985;28;20119;-80
2022/06/10 07:18:21;;;;;;;11.75;3.95;;;16.90;99.90;;;;;;5046455;28;20040;-81
2022/06/10 07:20:47;;;;;;;11.00;3.70;;;17.00;99.90;;;;;;5047703;28;20052;-81
2022/06/10 07:23:12;;;;;;;12.98;4.28;;;17.00;99.90;;;;;;5046202;28;20487;-80
2022/06/10 07:25:38;;;;;;;12.88;3.97;;;16.90;99.90;;;;;;5030067;28;20159;-81
2022/06/10 07:28:04;;;;;;;13.25;4.82;;;17.00;99.90;;;;;;5049506;28;20083;-81
2022/06/10 07:30:31;;;;;;;11.50;4.72;;;16.90;99.90;;;;;;5052352;28;20429;-81
2022/06/10 07:32:58;;;;;;;13.95;5.30;;;16.80;99.90;;;;;;5052527;28;20040;-80
2022/06/10 07:35:24;;;;;;;11.70;4.78;;;16.90;99.90;;;;;;5048220;28;20449;-79
2022/06/10 07:37:51;;;;;;;11.35;4.63;;;17.00;99.90;;;;;;5051307;28;20033;-80
2022/06/10 07:43:14;;;;;;;11.95;4.75;;;17.20;99.90;;;;;;5047196;28;20037;-78
2022/06/10 07:45:40;;;;;;;11.43;4.45;;;17.20;99.90;;;;;;5049498;28;20037;-80
2022/06/10 07:48:06;;;;;;;12.13;4.88;;;17.30;99.90;;;;;;5052528;28;20048;-80
2022/06/10 07:50:32;;;;;;;13.80;5.22;;;17.30;99.90;;;;;;5048535;28;20052;-77
2022/06/10 07:52:58;;;;;;;10.48;4.22;;;17.30;99.90;;;;;;5048811;28;20037;-78
2022/06/10 07:55:24;;;;;;;10.05;4.28;;;17.30;99.90;;;;;;5050836;28;20052;-80
2022/06/10 07:57:50;;;;;;;9.60;4.43;;;17.20;99.90;;;;;;5045531;28;20103;-80
2022/06/10 08:00:16;;;;;;;9.98;4.25;;;17.30;99.90;;;;;;5031048;28;20877;-79
2022/06/10 08:02:42;;;;;;;9.70;4.85;;;17.30;99.90;;;;;;5048340;28;20040;-80
2022/06/10 08:05:11;;;;;;;9.82;4.60;;;17.30;99.90;;;;;;5053335;28;20041;-80
2022/06/10 08:07:37;;;;;;;12.82;4.72;;;17.30;99.90;;;;;;5050898;28;20031;-80
2022/06/10 08:10:05;;;;;;;13.50;4.75;;;17.40;99.90;;;;;;5037109;28;20515;-80
2022/06/10 08:12:31;;;;;;;10.43;4.63;;;17.40;99.90;;;;;;5051593;28;20037;-79
2022/06/10 08:14:56;;;;;;;10.75;4.85;;;17.40;99.90;;;;;;5046614;28;20055;-80
2022/06/10 08:17:22;;;;;;;8.80;4.60;;;17.50;99.90;;;;;;5033789;28;20044;-80
2022/06/10 08:19:48;;;;;;;12.55;5.50;;;17.50;99.90;;;;;;5054090;28;20849;-79
2022/06/10 08:24:57;;;;;;;12.82;5.22;;;17.80;99.90;;;;;;5052172;28;20045;-79
2022/06/10 08:27:23;;;;;;;16.40;5.13;;;17.90;99.90;;;;;;5035720;28;20391;-81
2022/06/10 08:29:48;;;;;;;13.73;5.15;;;17.80;99.90;;;;;;5053636;28;20486;-79
2022/06/10 08:32:14;;;;;;;12.93;5.32;;;17.80;99.90;;;;;;5053970;28;20033;-80
2022/06/10 08:34:42;;;;;;;15.25;5.90;;;17.70;99.90;;;;;;5050772;28;20040;-79
2022/06/10 08:37:11;;;;;;;15.10;5.68;;;17.70;99.90;;;;;;5048905;28;20063;-81
2022/06/10 08:39:36;;;;;;;15.35;5.20;;;17.60;99.90;;;;;;5047761;28;20033;-79
2022/06/10 08:42:35;;;;;;;10.63;5.22;;;17.70;99.90;;;;;;5045634;28;20050;-80
2022/06/10 08:45:30;;;;;;;14.45;5.40;;;17.70;99.90;;;;;;5045607;28;20049;-80
2022/06/10 08:48:28;;;;;;;12.70;5.10;;;17.70;99.90;;;;;;5048233;28;20052;-79
2022/06/10 08:51:21;;;;;;;11.95;4.97;;;17.50;99.90;;;;;;5050043;28;20613;-79
2022/06/10 08:53:58;;;;;;;15.25;5.32;;;17.40;99.90;;;;;;5045359;28;20064;-80
2022/06/10 08:56:30;;;;;;;13.98;5.68;;;17.40;99.90;;;;;;5046769;28;20048;-79
2022/06/10 08:59:08;;;;;;;12.68;4.95;;;17.40;99.90;;;;;;5048952;28;20164;-80
2022/06/10 09:01:55;;;;;;;15.50;5.78;;;17.60;99.90;;;;;;5063224;28;20048;-80
2022/06/10 09:04:32;;;;;;;14.23;5.88;;;17.80;99.90;;;;;;5030953;28;20072;-78
2022/06/10 09:07:05;;;;;;;12.50;5.63;;;18.10;99.90;;;;;;5046779;28;20045;-80
2022/06/10 09:09:33;;;;;;;15.60;5.90;;;18.30;99.90;;;;;;5046602;28;20059;-79
2022/06/10 09:12:21;;;;;;;13.05;6.15;;;18.50;99.90;;;;;;5047138;28;20403;-80
2022/06/10 09:14:57;;;;;;;12.48;5.68;;;18.60;99.90;;;;;;5046456;28;20072;-80
2022/06/10 09:17:33;;;;;;;14.63;5.07;;;18.70;99.90;;;;;;5045925;28;20043;-79
2022/06/10 09:20:31;;;;;;;16.50;5.10;;;18.70;99.90;;;;;;5047826;28;20068;-79
2022/06/10 09:23:08;;;;;;;10.20;4.97;;;18.50;99.90;;;;;;5046284;28;20045;-80
2022/06/10 09:25:42;;;;;;;13.73;4.95;;;18.30;99.90;;;;;;5033197;28;20048;-78
2022/06/10 09:28:08;;;;;;;11.57;4.70;;;18.20;99.90;;;;;;5048597;28;20032;-80
2022/06/10 09:30:36;;;;;;;14.38;4.80;;;18.00;99.90;;;;;;5047769;28;20041;-80
2022/06/10 09:33:18;;;;;;;13.85;4.75;;;17.90;99.90;;;;;;5047537;28;20510;-79
2022/06/10 09:35:57;;;;;;;13.60;4.82;;;17.80;99.90;;;;;;5043731;28;20037;-80
2022/06/10 09:38:35;;;;;;;10.82;4.53;;;17.80;99.90;;;;;;5048896;28;20091;-80
2022/06/10 09:41:30;;;;;;;12.48;4.55;;;17.80;99.90;;;;;;5032131;28;20041;-78
2022/06/10 09:44:07;;;;;;;13.55;4.47;;;17.80;99.90;;;;;;5047130;28;20052;-78
2022/06/10 09:47:07;;;;;;;10.75;4.35;;;17.80;99.90;;;;;;5048621;28;20040;-77
2022/06/10 09:50:01;;;;;;;12.18;4.65;;;18.00;99.90;;;;;;5063901;28;20033;-80
2022/06/10 09:52:39;;;;;;;11.57;4.63;;;18.30;99.90;;;;;;5047188;28;20045;-78
2022/06/10 09:55:26;;;;;;;12.75;5.10;;;18.70;99.90;;;;;;5030307;28;20041;-81
2022/06/10 09:58:13;;;;;;;10.20;4.72;;;18.90;99.90;;;;;;5051669;28;20496;-79
2022/06/10 10:01:03;;;;;;;13.25;5.03;;;18.90;99.90;;;;;;5033460;28;20034;-78
2022/06/10 10:03:46;;;;;;;12.52;5.18;;;18.90;99.90;;;;;;5033826;28;20041;-78
2022/06/10 10:06:37;;;;;;;14.98;5.40;;;18.90;99.90;;;;;;5041802;28;20495;-78
2022/06/10 10:09:17;;;;;;;12.82;5.38;;;19.00;99.90;;;;;;5052719;28;20087;-79
2022/06/10 10:12:10;;;;;;;11.02;4.90;;;18.90;99.90;;;;;;5051070;28;20065;-79
2022/06/10 10:14:42;;;;;;;17.50;5.53;;;18.90;99.90;;;;;;5047219;28;20047;-79
2022/06/10 10:17:16;;;;;;;15.25;5.05;;;18.80;99.90;;;;;;5047535;28;20203;-78
2022/06/10 10:19:59;;;;;;;13.63;5.53;;;18.80;99.90;;;;;;5046237;28;20037;-78
2022/06/10 10:23:02;;;;;;;13.23;5.20;;;19.00;99.90;;;;;;5050473;28;20049;-77
2022/06/10 10:25:29;;;;;;;16.10;5.60;;;19.10;99.90;;;;;;5051534;28;20481;-77
2022/06/10 10:27:55;;;;;;;16.13;5.40;;;19.10;99.90;;;;;;5050901;28;20037;-78
2022/06/10 10:30:34;;;;;;;13.90;5.95;;;19.10;99.90;;;;;;5053115;28;20036;-78
2022/06/10 10:33:10;;;;;;;11.98;5.35;;;19.20;99.90;;;;;;5051196;28;20044;-79
2022/06/10 10:35:51;;;;;;;10.60;4.90;;;19.20;99.90;;;;;;5053452;28;20583;-79
2022/06/10 10:38:42;;;;;;;12.57;4.95;;;19.20;99.90;;;;;;5053090;28;20033;-77
2022/06/10 10:41:26;;;;;;;13.23;5.40;;;19.20;99.90;;;;;;5065158;28;20498;-79
2022/06/10 10:43:55;;;;;;;12.55;4.78;;;19.20;99.90;;;;;;5050270;28;20124;-80
2022/06/10 10:46:28;;;;;;;12.77;5.20;;;19.00;99.90;;;;;;5049906;28;20051;-78
2022/06/10 10:48:57;;;;;;;15.35;5.43;;;19.00;99.90;;;;;;5035865;28;20047;-79
2022/06/10 10:51:31;;;;;;;12.95;4.97;;;19.10;99.90;;;;;;5035399;28;20029;-77
2022/06/10 10:54:16;;;;;;;12.75;5.03;;;19.00;99.90;;;;;;5045681;28;20045;-77
2022/06/10 10:56:47;;;;;;;9.32;4.63;;;18.90;99.90;;;;;;5050542;28;20028;-78
2022/06/10 10:59:31;;;;;;;11.05;4.88;;;18.90;99.90;;;;;;5050690;28;20045;-78
2022/06/10 11:01:57;;;;;;;16.83;5.57;;;19.00;99.90;;;;;;5042309;28;20036;-78
2022/06/10 11:04:26;;;;;;;9.98;5.18;;;19.10;99.90;;;;;;5049442;28;20517;-79
2022/06/10 11:07:07;;;;;;;12.73;5.03;;;19.20;99.90;;;;;;5050069;28;20057;-77
2022/06/10 11:09:46;;;;;;;8.90;4.40;;;19.30;99.90;;;;;;5047000;28;20124;-81
2022/06/10 11:12:21;;;;;;;12.02;4.32;;;19.30;99.90;;;;;;5030524;28;20040;-77
2022/06/10 11:14:59;;;;;;;10.00;4.80;;;19.40;99.90;;;;;;5045891;28;20040;-77
2022/06/10 11:17:25;;;;;;;7.75;4.50;;;19.30;99.90;;;;;;5046649;28;20040;-77
2022/06/10 11:20:24;;;;;;;10.95;4.30;;;19.30;99.90;;;;;;5046765;28;20044;-78
2022/06/10 11:22:50;;;;;;;10.45;4.32;;;19.20;99.90;;;;;;5048840;28;20525;-78
2022/06/10 11:25:26;;;;;;;9.73;4.60;;;19.20;99.90;;;;;;5047536;28;20037;-77
2022/06/10 11:28:00;;;;;;;9.90;4.38;;;19.30;99.90;;;;;;5031697;28;20261;-78
2022/06/10 11:30:42;;;;;;;10.52;4.38;;;19.50;99.90;;;;;;5066736;28;20045;-79
2022/06/10 11:33:24;;;;;;;8.02;4.32;;;19.80;99.90;;;;;;5047078;28;20052;-77
2022/06/10 11:36:10;;;;;;;8.07;3.88;;;19.90;99.90;;;;;;5031905;28;20122;-77
2022/06/10 11:38:49;;;;;;;14.98;4.30;;;19.80;99.90;;;;;;5028249;28;20573;-78
2022/06/10 11:41:25;;;;;;;7.45;4.00;;;19.80;99.90;;;;;;5051057;28;20037;-79
2022/06/10 11:44:30;;;;;;;8.63;3.75;;;20.00;99.90;;;;;;5046951;28;20127;-78
2022/06/10 11:47:03;;;;;;;9.23;3.90;;;20.20;99.90;;;;;;5036343;28;20934;-80
2022/06/10 11:49:34;;;;;;;9.63;4.38;;;20.20;99.90;;;;;;5049665;28;20101;-77
2022/06/10 11:52:14;;;;;;;13.57;4.45;;;20.30;99.90;;;;;;5046358;28;20033;-78
2022/06/10 11:55:14;;;;;;;8.88;4.43;;;20.40;99.90;;;;;;5047276;28;20049;-79
2022/06/10 12:00:45;;;;;;;11.50;4.50;;;21.10;99.90;;;;;;5049559;28;20037;-79
2022/06/10 12:03:23;;;;;;;8.10;4.15;;;21.60;99.90;;;;;;5042849;28;20060;-79
2022/06/10 12:06:05;;;;;;;9.60;4.45;;;22.20;99.90;;;;;;5046657;28;20094;-78
2022/06/10 12:08:43;;;;;;;11.85;5.28;;;22.70;99.90;;;;;;5031338;28;20094;-78
2022/06/10 12:11:27;;;;;;;13.63;4.80;;;22.80;99.90;;;;;;5045266;28;20045;-78
2022/06/10 12:14:01;;;;;;;13.13;5.13;;;22.70;99.90;;;;;;5048102;28;20040;-78
2022/06/10 12:16:30;;;;;;;8.88;4.60;;;22.60;99.90;;;;;;5047857;28;20048;-78
2022/06/10 12:18:57;;;;;;;12.40;4.80;;;22.30;99.90;;;;;;5047927;28;20106;-77
2022/06/10 12:21:24;;;;;;;9.82;4.93;;;22.10;99.90;;;;;;5044468;28;20598;-77
2022/06/10 12:23:51;;;;;;;11.57;4.57;;;21.80;99.90;;;;;;5044002;28;20033;-78
2022/06/10 12:26:30;;;;;;;12.45;4.78;;;21.60;99.90;;;;;;5046924;28;20052;-77
2022/06/10 12:29:01;;;;;;;9.38;4.10;;;21.40;99.90;;;;;;5045468;28;20049;-77
2022/06/10 12:31:45;;;;;;;13.75;4.40;;;21.30;99.90;;;;;;5047230;28;20116;-78
2022/06/10 12:34:39;;;;;;;11.95;4.25;;;21.20;99.90;;;;;;5043788;28;20387;-78
2022/06/10 12:37:14;;;;;;;12.88;4.88;;;21.00;99.90;;;;;;5045725;28;20041;-77
2022/06/10 12:39:48;;;;;;;72.45;24.40;;;20.90;99.90;;;;;;5046610;28;20426;-77
2022/06/10 12:42:28;;;;;;;26.92;11.38;;;21.10;99.90;;;;;;5050695;28;20107;-79
2022/06/10 12:44:56;;;;;;;11.10;4.38;;;21.20;99.90;;;;;;5048168;28;20037;-78
2022/06/10 12:47:29;;;;;;;9.40;4.30;;;21.30;99.90;;;;;;5045606;28;20029;-80
2022/06/10 12:50:00;;;;;;;9.05;4.30;;;21.40;99.90;;;;;;5046025;28;20044;-78
2022/06/10 12:52:54;;;;;;;11.27;4.30;;;21.40;99.90;;;;;;5047823;28;20376;-80
2022/06/10 12:55:44;;;;;;;15.63;4.63;;;21.40;99.90;;;;;;5046646;28;20064;-79
2022/06/10 12:58:38;;;;;;;11.10;4.57;;;21.30;99.90;;;;;;5045791;28;20067;-79
2022/06/10 13:01:18;;;;;;;10.57;4.57;;;21.20;99.90;;;;;;5048533;28;20055;-77
2022/06/10 13:03:46;;;;;;;9.40;3.97;;;21.20;99.90;;;;;;5048676;28;20043;-77
2022/06/10 13:06:49;;;;;;;9.90;4.32;;;21.10;99.90;;;;;;5030830;28;20036;-79
2022/06/10 13:09:18;;;;;;;12.20;4.65;;;21.00;99.90;;;;;;5047781;28;20068;-79
2022/06/10 13:12:08;;;;;;;11.45;4.55;;;21.10;99.90;;;;;;5049920;28;20051;-79
2022/06/10 13:14:39;;;;;;;8.55;3.85;;;21.20;99.90;;;;;;5047221;28;20041;-80
2022/06/10 13:17:18;;;;;;;9.57;4.30;;;21.30;99.90;;;;;;5049441;28;20044;-79
2022/06/10 13:20:09;;;;;;;10.88;4.10;;;21.30;99.90;;;;;;5045204;28;20037;-79
2022/06/10 13:22:39;;;;;;;8.88;3.80;;;21.60;99.90;;;;;;5049040;28;20396;-78
2022/06/10 13:25:08;;;;;;;8.80;3.72;;;21.90;99.90;;;;;;5045606;28;20048;-78
2022/06/10 13:27:45;;;;;;;8.48;3.30;;;22.30;99.90;;;;;;5044765;28;20052;-77